Warning: Javascript must be enabled to use all the features on this page!


Page Loading - Please Wait...

Click to hideNews Bulletins

Peak Streamflow for the Nation

USGS 03052000 MIDDLE FORK RIVER AT AUDRA, WV

Barbour County, West Virginia
Hydrologic Unit Code 05020001
Latitude  39°02'22", Longitude  80°04'06" NAD27
Drainage area 149  square miles
Gage datum 1,669.4 feet above NAVD88
Output formats
Table
Graph
Tab-separated file
peakfq (watstore) format
Reselect output format
Water
Year
Date Gage
Height
(feet)
Stream-
flow
(cfs)
1943 1942-10-15 7.77 3,760
1944 1944-06-23 10.17 6,820
1945 1944-12-26 9.96 6,520
1946 1946-01-07 7.21 3,170
1947 1947-06-08 9.95 6,510
1948 1948-02-14 11.26 8,470
1949 1948-12-16 9.26 5,360
1950 1950-06-25 10.72 7,630
1951 1950-12-04 8.89 4,920
1952 1952-01-27 8.36 4,370
1953 1953-01-08 6.34 2,360
1954 1954-01-16 7.25 3,170
1955 1954-10-16 13.02 11,500
1956 1956-08-06 10.24 6,920
1957 1957-01-29 11.10 8,070
1958 1958-07-23 9.10 5,140
1959 1959-01-22 9.19 5,250
1960 1960-03-30 8.60 4,590
1961 1961-08-12 7.99 3,960
1962 1962-03-22 7.95 3,960
1963 1963-03-05 10.84 7,810
1964 1964-03-05 9.61 6,040
1965 1965-04-26 8.04 4,000
1966 1966-05-01 9.59 6,020
1967 1967-03-07 12.68 10,900
1968 1968-03-12 8.36 4,480
1969 1969-07-12 6.90 2,900
1970 1969-12-31 10.89 7,880
1971 1970-12-22 10.96 7,990
1972 1972-06-23 13.89 12,800
1973 1972-12-09 9.31 5,800
1974 1974-06-02 9.01 5,410
1975 1975-04-29 7.80 3,930
1976 1976-07-24 9.07 5,490
1977 1976-10-09 9.96 6,650
1978 1978-01-26 10.14 6,880
1979 1978-12-21 11.00 8,000
1986 1985-11-05 15.80 17,1002,7
1989 1989-03-06 9.93 6,500
1990 1990-05-26 9.86 6,400
1991 1990-12-31 9.33 5,660
1992 1992-07-27 13.14 11,800
1993 1992-12-17 9.41 5,770
1994 1994-02-09 13.80 13,100
1995 1995-05-14 8.44 4,480
1996 1996-05-17 15.60 16,700
1997 1997-03-01 9.28 5,610
1998 1998-06-19 11.92 9,560
1999 1999-01-22 10.25 6,930
2000 2000-02-19 12.45 10,500
2001 2001-02-15 8.29 4,380
2002 2002-03-20 9.93 6,480
2003 2003-09-02 9.80 6,300
2004 2004-02-06 10.41 7,160
2005 2005-03-08 7.52 3,520
2006 2005-11-29 11.35 8,610
2007 2007-04-15 9.13 5,410
2008 2008-06-05 10.50 7,290
2009 2008-12-12 10.53 7,340
2010 2010-03-12 8.03 4,080
2011 2011-04-13 9.32 5,660
2012 2011-11-23 9.06 5,330
2013 2013-01-31 10.02 6,600
2014 2013-12-07 11.20 8,370
2015 2015-03-05 11.05 8,130
2016 2016-06-23 9.67 6,120
2017 2017-01-04 7.93 3,970
2018 2018-04-16 11.29 8,510
2019 2019-02-24 6.86 2,830
2020 2019-12-17 9.26 5,580
2021 2021-03-01 8.62 4,780
?
  Peak Streamflow Qualification Codes.